createdAt,value
2023-05-08T00:02:04.601Z,13.17
2023-05-08T00:04:31.232Z,13.63
2023-05-08T00:06:57.863Z,11.53
2023-05-08T00:09:24.365Z,12.70
2023-05-08T00:11:50.866Z,14.57
2023-05-08T00:14:17.901Z,13.87
2023-05-08T00:16:44.554Z,13.20
2023-05-08T00:19:11.060Z,12.47
2023-05-08T00:21:37.669Z,11.67
2023-05-08T00:24:04.383Z,11.63
2023-05-08T00:26:31.135Z,13.37
2023-05-08T00:28:57.750Z,12.43
2023-05-08T00:31:24.313Z,13.97
2023-05-08T00:33:50.919Z,13.27
2023-05-08T00:36:17.445Z,12.27
2023-05-08T00:38:44.009Z,14.03
2023-05-08T00:41:10.544Z,14.87
2023-05-08T00:43:37.750Z,14.57
2023-05-08T00:46:04.323Z,13.10
2023-05-08T00:48:32.050Z,16.97
2023-05-08T00:50:59.157Z,13.53
2023-05-08T00:53:26.659Z,14.33
2023-05-08T00:55:53.461Z,16.33
2023-05-08T00:58:21.130Z,11.97
2023-05-08T01:00:48.327Z,13.37
2023-05-08T01:03:15.265Z,16.17
2023-05-08T01:05:42.036Z,15.10
2023-05-08T01:08:08.603Z,15.03
2023-05-08T01:10:51.412Z,14.07
2023-05-08T01:13:35.044Z,15.10
2023-05-08T01:16:28.255Z,16.23
2023-05-08T01:19:10.543Z,15.53
2023-05-08T01:21:40.091Z,16.43
2023-05-08T01:24:06.602Z,15.70
2023-05-08T01:26:33.051Z,18.47
2023-05-08T01:29:11.700Z,17.20
2023-05-08T01:31:50.579Z,17.53
2023-05-08T01:34:23.782Z,15.07
2023-05-08T01:36:58.372Z,18.83
2023-05-08T01:39:27.868Z,17.37
2023-05-08T01:41:59.068Z,17.30
2023-05-08T01:44:28.817Z,17.47
2023-05-08T01:46:55.590Z,20.70
2023-05-08T01:49:30.301Z,18.57
2023-05-08T01:51:58.233Z,17.50
2023-05-08T01:54:26.883Z,17.87
2023-05-08T01:56:55.248Z,21.27
2023-05-08T01:59:23.746Z,21.43
2023-05-08T02:01:52.906Z,18.90
2023-05-08T02:04:19.989Z,19.73
2023-05-08T02:06:47.051Z,19.53
2023-05-08T02:09:13.854Z,19.33
2023-05-08T02:11:41.539Z,20.40
2023-05-08T02:14:08.853Z,24.73
2023-05-08T02:16:36.971Z,17.33
2023-05-08T02:19:04.503Z,23.40
2023-05-08T02:21:31.791Z,19.13
2023-05-08T02:23:59.288Z,18.63
2023-05-08T02:26:26.557Z,20.43
2023-05-08T02:28:54.491Z,19.10
2023-05-08T02:31:21.298Z,18.73
2023-05-08T02:33:48.826Z,19.43
2023-05-08T02:36:16.895Z,18.70
2023-05-08T02:38:49.468Z,20.30
2023-05-08T02:41:17.730Z,20.63
2023-05-08T02:43:45.110Z,19.87
2023-05-08T02:46:16.214Z,20.77
2023-05-08T02:49:12.208Z,19.20
2023-05-08T02:51:55.822Z,18.83
2023-05-08T02:54:32.122Z,18.60
2023-05-08T02:56:58.636Z,18.97
2023-05-08T02:59:40.104Z,17.53
2023-05-08T03:02:06.642Z,20.37
2023-05-08T03:04:36.497Z,17.23
2023-05-08T03:07:04.558Z,16.00
2023-05-08T03:09:43.113Z,17.67
2023-05-08T03:12:18.224Z,20.33
2023-05-08T03:14:47.085Z,15.97
2023-05-08T03:17:15.476Z,17.60
2023-05-08T03:19:44.363Z,16.40
2023-05-08T03:22:11.722Z,15.57
2023-05-08T03:24:39.501Z,17.93
2023-05-08T03:27:06.602Z,16.03
2023-05-08T03:29:34.024Z,18.10
2023-05-08T03:32:00.765Z,16.33
2023-05-08T03:34:27.901Z,18.23
2023-05-08T03:36:54.601Z,16.00
2023-05-08T03:39:21.161Z,15.67
2023-05-08T03:41:49.723Z,16.47
2023-05-08T03:44:17.929Z,16.90
2023-05-08T03:46:45.292Z,16.00
2023-05-08T03:49:12.612Z,16.70
2023-05-08T03:51:40.087Z,17.23
2023-05-08T03:54:06.691Z,17.57
2023-05-08T03:56:33.876Z,15.90
2023-05-08T03:59:00.476Z,15.70
2023-05-08T04:01:53.210Z,17.67
2023-05-08T04:04:25.138Z,18.43
2023-05-08T04:07:00.824Z,15.83
2023-05-08T04:09:31.443Z,16.90
2023-05-08T04:12:03.428Z,16.73
2023-05-08T04:14:54.803Z,15.60
2023-05-08T04:17:41.172Z,16.93
2023-05-08T04:20:17.136Z,16.63
2023-05-08T04:23:04.034Z,17.17
2023-05-08T04:25:51.751Z,14.13
2023-05-08T04:28:38.511Z,13.77
2023-05-08T04:31:26.427Z,16.23
2023-05-08T04:34:10.675Z,16.47
2023-05-08T04:36:51.109Z,15.47
2023-05-08T04:39:37.632Z,16.20
2023-05-08T04:42:04.898Z,16.67
2023-05-08T04:44:32.330Z,16.97
2023-05-08T04:46:58.946Z,15.97
2023-05-08T04:49:25.480Z,15.67
2023-05-08T04:51:52.031Z,15.50
2023-05-08T04:54:18.551Z,15.87
2023-05-08T04:56:45.039Z,16.30
2023-05-08T05:01:38.511Z,15.13
2023-05-08T05:04:05.366Z,15.90
2023-05-08T05:06:33.660Z,16.93
2023-05-08T05:09:00.367Z,17.77
2023-05-08T05:11:26.954Z,15.00
2023-05-08T05:13:53.472Z,16.27
2023-05-08T05:16:20.139Z,13.17
2023-05-08T05:18:47.173Z,16.13
2023-05-08T05:21:14.162Z,13.67
2023-05-08T05:23:41.474Z,15.23
2023-05-08T05:26:08.010Z,14.30
2023-05-08T05:28:34.545Z,14.50
2023-05-08T05:31:01.049Z,14.23
2023-05-08T05:33:27.708Z,13.93
2023-05-08T05:35:54.286Z,14.07
2023-05-08T05:38:20.808Z,12.50
2023-05-08T05:40:47.343Z,13.30
2023-05-08T05:43:13.829Z,13.33
2023-05-08T05:45:40.439Z,12.73
2023-05-08T05:48:07.265Z,12.63
2023-05-08T05:50:33.860Z,13.40
2023-05-08T05:53:00.340Z,11.97
2023-05-08T05:55:26.910Z,13.07
2023-05-08T05:57:53.485Z,11.63
2023-05-08T06:00:21.238Z,14.77
2023-05-08T06:02:48.265Z,15.23
2023-05-08T06:05:15.440Z,12.30
2023-05-08T06:07:42.020Z,14.23
2023-05-08T06:10:08.733Z,13.13
2023-05-08T06:12:35.786Z,11.13
2023-05-08T06:15:02.328Z,12.67
2023-05-08T06:17:28.923Z,11.83
2023-05-08T06:19:56.670Z,12.67
2023-05-08T06:22:24.332Z,11.20
2023-05-08T06:24:53.655Z,12.00
2023-05-08T06:27:23.732Z,10.07
2023-05-08T06:29:53.129Z,12.03
2023-05-08T06:32:21.012Z,12.87
2023-05-08T06:34:48.116Z,12.37
2023-05-08T06:37:14.731Z,11.60
2023-05-08T06:39:41.317Z,9.77
2023-05-08T06:42:08.696Z,10.23
2023-05-08T06:44:35.506Z,10.87
2023-05-08T06:47:02.178Z,12.03
2023-05-08T06:49:28.738Z,13.10
2023-05-08T06:51:57.728Z,9.80
2023-05-08T06:54:24.577Z,10.87
2023-05-08T06:56:52.450Z,12.27
2023-05-08T06:59:19.018Z,12.00
2023-05-08T07:01:45.596Z,9.63
2023-05-08T07:04:12.561Z,9.60
2023-05-08T07:06:39.133Z,9.70
2023-05-08T07:09:05.639Z,12.73
2023-05-08T07:11:32.287Z,11.27
2023-05-08T07:13:58.923Z,11.63
2023-05-08T07:16:25.487Z,10.93
2023-05-08T07:18:52.035Z,11.23
2023-05-08T07:21:20.350Z,12.10
2023-05-08T07:23:48.077Z,10.20
2023-05-08T07:26:14.693Z,9.53
2023-05-08T07:28:41.217Z,10.33
2023-05-08T07:31:08.106Z,10.17
2023-05-08T07:33:34.806Z,10.23
2023-05-08T07:36:01.572Z,9.87
2023-05-08T07:38:28.119Z,10.07
2023-05-08T07:40:59.581Z,11.37
2023-05-08T07:43:26.151Z,10.30
2023-05-08T07:45:52.887Z,10.43
2023-05-08T07:48:19.976Z,11.47
2023-05-08T07:50:46.617Z,10.40
2023-05-08T07:53:13.174Z,11.47
2023-05-08T07:55:39.774Z,11.10
2023-05-08T07:58:06.853Z,10.00
2023-05-08T08:00:33.579Z,9.90
2023-05-08T08:03:00.311Z,9.30
2023-05-08T08:05:27.017Z,9.63
2023-05-08T08:07:53.567Z,10.30
2023-05-08T08:10:20.223Z,10.93
2023-05-08T08:12:46.935Z,9.50
2023-05-08T08:15:13.837Z,9.97
2023-05-08T08:17:40.563Z,10.23
2023-05-08T08:20:07.373Z,11.53
2023-05-08T08:22:33.916Z,10.40
2023-05-08T08:25:00.464Z,10.43
2023-05-08T08:27:27.100Z,10.93
2023-05-08T08:30:01.531Z,9.23
2023-05-08T08:32:39.151Z,10.50
2023-05-08T08:35:05.974Z,8.80
2023-05-08T08:37:32.516Z,10.17
2023-05-08T08:39:59.858Z,10.20
2023-05-08T08:42:27.912Z,9.10
2023-05-08T08:44:55.456Z,9.67
2023-05-08T08:47:27.394Z,9.40
2023-05-08T08:49:54.867Z,9.77
2023-05-08T08:52:32.169Z,10.90
2023-05-08T08:55:02.338Z,9.03
2023-05-08T08:57:33.796Z,9.37
2023-05-08T09:00:04.444Z,9.47
2023-05-08T09:02:31.566Z,10.43
2023-05-08T09:04:59.205Z,9.73
2023-05-08T09:07:26.905Z,9.00
2023-05-08T09:09:53.593Z,9.57
2023-05-08T09:12:20.150Z,9.03
2023-05-08T09:14:46.756Z,11.23
2023-05-08T09:17:13.243Z,9.00
2023-05-08T09:19:40.803Z,9.10
2023-05-08T09:22:09.327Z,9.53
2023-05-08T09:24:56.210Z,10.00
2023-05-08T09:27:27.129Z,9.80
2023-05-08T09:30:01.976Z,9.20
2023-05-08T09:32:29.478Z,9.60
2023-05-08T09:34:56.247Z,10.03
2023-05-08T09:37:22.892Z,10.00
2023-05-08T09:39:50.012Z,9.47
2023-05-08T09:42:16.769Z,9.83
2023-05-08T09:44:47.394Z,8.73
2023-05-08T09:47:15.016Z,9.37
2023-05-08T09:50:01.824Z,9.27
2023-05-08T09:52:29.083Z,9.37
2023-05-08T09:54:59.574Z,9.30
2023-05-08T09:57:27.165Z,10.10
2023-05-08T10:00:00.794Z,12.20
2023-05-08T10:02:27.379Z,9.33
2023-05-08T10:04:53.948Z,10.33
2023-05-08T10:07:30.628Z,9.93
2023-05-08T10:10:01.237Z,9.07
2023-05-08T10:12:28.570Z,9.13
2023-05-08T10:14:55.649Z,9.30
2023-05-08T10:17:27.021Z,9.80
2023-05-08T10:19:59.793Z,9.97
2023-05-08T10:22:27.653Z,9.97
2023-05-08T10:24:56.685Z,10.13
2023-05-08T10:27:43.422Z,8.57
2023-05-08T10:30:10.176Z,11.73
2023-05-08T10:32:44.657Z,9.13
2023-05-08T10:35:12.355Z,9.33
2023-05-08T10:37:42.373Z,9.63
2023-05-08T10:40:09.950Z,12.50
2023-05-08T10:42:36.516Z,8.90
2023-05-08T10:45:07.288Z,9.87
2023-05-08T10:47:51.954Z,8.30
2023-05-08T10:50:18.611Z,11.70
2023-05-08T10:52:50.466Z,10.47
2023-05-08T10:55:20.143Z,10.33
2023-05-08T10:58:10.042Z,10.53
2023-05-08T11:00:51.985Z,9.37
2023-05-08T11:03:30.649Z,10.20
2023-05-08T11:05:59.234Z,9.67
2023-05-08T11:08:27.481Z,9.33
2023-05-08T11:11:05.305Z,10.03
2023-05-08T11:13:40.883Z,10.33
2023-05-08T11:16:08.213Z,10.13
2023-05-08T11:18:48.574Z,11.35
2023-05-08T11:21:20.603Z,10.03
2023-05-08T11:23:55.996Z,10.17
2023-05-08T11:26:37.940Z,11.40
2023-05-08T11:29:15.877Z,9.13
2023-05-08T11:31:52.705Z,9.80
2023-05-08T11:34:42.833Z,8.97
2023-05-08T11:37:17.516Z,9.03
2023-05-08T11:39:44.063Z,9.50
2023-05-08T11:42:27.023Z,9.07
2023-05-08T11:45:04.266Z,9.17
2023-05-08T11:47:41.448Z,8.87
2023-05-08T11:50:08.771Z,9.77
2023-05-08T11:52:36.173Z,10.17
2023-05-08T11:55:09.640Z,8.33
2023-05-08T11:57:36.390Z,8.25
2023-05-08T12:00:10.030Z,9.90
2023-05-08T12:02:41.078Z,8.70
2023-05-08T12:05:08.560Z,8.95
2023-05-08T12:07:45.890Z,8.05
2023-05-08T12:10:16.658Z,10.47
2023-05-08T12:12:44.263Z,7.55
2023-05-08T12:15:12.326Z,9.95
2023-05-08T12:17:39.057Z,8.50
2023-05-08T12:20:16.450Z,7.55
2023-05-08T12:22:49.619Z,9.00
2023-05-08T12:25:16.759Z,7.43
2023-05-08T12:27:43.645Z,8.10
2023-05-08T12:30:12.480Z,8.63
2023-05-08T12:32:41.656Z,8.50
2023-05-08T12:35:08.860Z,8.32
2023-05-08T12:37:35.680Z,7.68
2023-05-08T12:40:02.846Z,8.48
2023-05-08T12:43:02.513Z,8.00
2023-05-08T12:45:30.177Z,7.47
2023-05-08T12:48:00.577Z,8.10
2023-05-08T12:50:27.473Z,7.20
2023-05-08T12:52:54.052Z,7.38
2023-05-08T12:55:24.899Z,9.60
2023-05-08T12:58:00.961Z,6.82
2023-05-08T13:00:36.050Z,8.80
2023-05-08T13:03:02.714Z,8.57
2023-05-08T13:05:29.328Z,7.80
2023-05-08T13:08:02.237Z,7.78
2023-05-08T13:10:47.596Z,8.10
2023-05-08T13:13:15.116Z,8.50
2023-05-08T13:15:41.929Z,7.60
2023-05-08T13:18:08.751Z,8.68
2023-05-08T13:20:35.790Z,7.45
2023-05-08T13:23:02.578Z,7.85
2023-05-08T13:25:30.190Z,8.82
2023-05-08T13:27:56.988Z,8.70
2023-05-08T13:30:23.688Z,9.40
2023-05-08T13:32:50.714Z,9.00
2023-05-08T13:35:17.806Z,8.85
2023-05-08T13:37:44.596Z,8.32
2023-05-08T13:40:11.483Z,7.88
2023-05-08T13:42:38.293Z,10.90
2023-05-08T13:45:05.643Z,7.80
2023-05-08T13:47:32.232Z,8.25
2023-05-08T13:49:59.004Z,9.02
2023-05-08T13:52:26.045Z,8.93
2023-05-08T13:54:52.738Z,9.25
2023-05-08T13:57:19.440Z,9.52
2023-05-08T13:59:46.126Z,8.00
2023-05-08T14:02:12.854Z,7.07
2023-05-08T14:04:40.083Z,9.55
2023-05-08T14:07:06.825Z,9.05
2023-05-08T14:09:33.967Z,8.95
2023-05-08T14:12:00.605Z,8.13
2023-05-08T14:14:27.195Z,7.53
2023-05-08T14:16:53.804Z,9.38
2023-05-08T14:19:20.405Z,7.97
2023-05-08T14:21:47.121Z,11.48
2023-05-08T14:24:13.738Z,7.30
2023-05-08T14:26:40.482Z,8.15
2023-05-08T14:29:07.293Z,9.15
2023-05-08T14:31:33.989Z,6.88
2023-05-08T14:34:00.650Z,9.70
2023-05-08T14:36:27.653Z,8.25
2023-05-08T14:38:54.259Z,8.85
2023-05-08T14:41:21.821Z,7.18
2023-05-08T14:43:50.292Z,9.68
2023-05-08T14:46:16.957Z,6.97
2023-05-08T14:48:43.680Z,7.88
2023-05-08T14:51:12.215Z,6.95
2023-05-08T14:53:39.052Z,6.30
2023-05-08T14:56:06.100Z,9.18
2023-05-08T14:58:33.180Z,8.13
2023-05-08T15:00:59.924Z,6.97
2023-05-08T15:03:27.040Z,7.53
2023-05-08T15:05:53.733Z,7.57
2023-05-08T15:08:20.597Z,7.07
2023-05-08T15:10:47.244Z,6.20
2023-05-08T15:13:13.968Z,6.40
2023-05-08T15:15:41.548Z,6.75
2023-05-08T15:18:08.196Z,7.32
2023-05-08T15:20:34.898Z,8.52
2023-05-08T15:23:01.550Z,7.93
2023-05-08T15:25:28.285Z,6.93
2023-05-08T15:27:54.973Z,6.78
2023-05-08T15:30:21.833Z,6.55
2023-05-08T15:32:48.937Z,8.10
2023-05-08T15:35:15.905Z,13.55
2023-05-08T15:37:42.666Z,8.82
2023-05-08T15:40:10.773Z,6.90
2023-05-08T15:42:37.647Z,7.63
2023-05-08T15:45:04.503Z,8.50
2023-05-08T15:47:31.502Z,7.30
2023-05-08T15:49:58.270Z,7.93
2023-05-08T15:52:24.880Z,7.55
2023-05-08T15:54:51.577Z,7.00
2023-05-08T15:57:18.158Z,6.43
2023-05-08T15:59:44.797Z,6.28
2023-05-08T16:02:11.452Z,6.72
2023-05-08T16:04:38.041Z,6.60
2023-05-08T16:07:04.687Z,6.43
2023-05-08T16:09:31.759Z,7.25
2023-05-08T16:11:58.408Z,10.52
2023-05-08T16:14:24.958Z,6.32
2023-05-08T16:16:51.534Z,6.20
2023-05-08T16:19:18.209Z,5.72
2023-05-08T16:21:47.955Z,8.27
2023-05-08T16:24:15.220Z,6.57
2023-05-08T16:26:41.855Z,6.55
2023-05-08T16:29:08.390Z,7.28
2023-05-08T16:31:34.939Z,7.05
2023-05-08T16:34:01.602Z,5.82
2023-05-08T16:36:28.200Z,6.75
2023-05-08T16:38:54.993Z,5.82
2023-05-08T16:41:23.014Z,6.75
2023-05-08T16:43:49.592Z,5.90
2023-05-08T16:46:17.494Z,5.60
2023-05-08T16:48:48.762Z,6.47
2023-05-08T16:51:15.680Z,7.15
2023-05-08T16:53:42.228Z,8.43
2023-05-08T16:56:09.529Z,6.18
2023-05-08T16:58:36.920Z,6.43
2023-05-08T17:01:03.564Z,6.82
2023-05-08T17:03:30.389Z,6.73
2023-05-08T17:05:57.041Z,6.70
2023-05-08T17:08:23.561Z,6.93
2023-05-08T17:10:50.170Z,6.90
2023-05-08T17:13:16.791Z,6.33
2023-05-08T17:15:43.321Z,6.37
2023-05-08T17:18:11.416Z,5.90
2023-05-08T17:20:43.176Z,5.93
2023-05-08T17:23:09.978Z,8.33
2023-05-08T17:25:36.592Z,8.53
2023-05-08T17:28:04.132Z,6.93
2023-05-08T17:30:31.480Z,6.50
2023-05-08T17:32:59.147Z,10.77
2023-05-08T17:35:25.729Z,7.33
2023-05-08T17:37:52.356Z,6.30
2023-05-08T17:40:19.863Z,7.67
2023-05-08T17:42:46.480Z,6.17
2023-05-08T17:45:13.463Z,6.30
2023-05-08T17:47:41.385Z,5.93
2023-05-08T17:50:09.992Z,5.57
2023-05-08T17:52:37.499Z,7.70
2023-05-08T17:55:04.123Z,8.83
2023-05-08T17:57:31.631Z,14.03
2023-05-08T17:59:58.312Z,6.57
2023-05-08T18:02:25.426Z,6.00
2023-05-08T18:04:52.534Z,6.10
2023-05-08T18:07:19.060Z,6.80
2023-05-08T18:09:45.968Z,6.93
2023-05-08T18:12:12.645Z,6.00
2023-05-08T18:14:39.307Z,5.90
2023-05-08T18:17:07.625Z,7.87
2023-05-08T18:19:34.688Z,6.63
2023-05-08T18:22:01.552Z,5.83
2023-05-08T18:24:28.902Z,8.50
2023-05-08T18:26:55.756Z,6.73
2023-05-08T18:29:22.693Z,5.60
2023-05-08T18:31:49.790Z,6.07
2023-05-08T18:34:16.572Z,7.20
2023-05-08T18:36:43.407Z,5.73
2023-05-08T18:39:10.128Z,6.23
2023-05-08T18:41:37.187Z,6.73
2023-05-08T18:44:05.088Z,7.03
2023-05-08T18:46:32.008Z,8.63
2023-05-08T18:48:58.612Z,6.50
2023-05-08T18:51:25.233Z,6.83
2023-05-08T18:53:51.720Z,5.73
2023-05-08T18:56:19.620Z,6.00
2023-05-08T18:58:46.938Z,5.17
2023-05-08T19:01:13.493Z,6.90
2023-05-08T19:03:40.227Z,8.90
2023-05-08T19:06:06.845Z,5.77
2023-05-08T19:08:33.965Z,6.83
2023-05-08T19:11:00.661Z,5.57
2023-05-08T19:13:27.355Z,7.80
2023-05-08T19:15:54.396Z,7.93
2023-05-08T19:18:21.102Z,5.70
2023-05-08T19:20:47.704Z,7.80
2023-05-08T19:23:14.201Z,6.13
2023-05-08T19:25:40.756Z,6.03
2023-05-08T19:28:07.454Z,5.27
2023-05-08T19:30:34.006Z,6.40
2023-05-08T19:33:00.647Z,8.60
2023-05-08T19:35:27.233Z,6.33
2023-05-08T19:37:53.929Z,5.90
2023-05-08T19:40:20.747Z,6.23
2023-05-08T19:42:47.493Z,6.83
2023-05-08T19:45:14.082Z,6.47
2023-05-08T19:47:40.621Z,10.67
2023-05-08T19:50:07.453Z,6.00
2023-05-08T19:52:34.421Z,6.80
2023-05-08T19:55:01.020Z,6.63
2023-05-08T19:57:27.567Z,6.03
2023-05-08T19:59:54.070Z,6.07
2023-05-08T20:02:21.453Z,6.33
2023-05-08T20:05:14.497Z,6.57
2023-05-08T20:07:34.549Z,6.40
2023-05-08T20:10:01.390Z,5.90
2023-05-08T20:12:28.013Z,6.93
2023-05-08T20:14:54.495Z,5.97
2023-05-08T20:17:21.195Z,6.63
2023-05-08T20:19:47.982Z,7.80
2023-05-08T20:22:14.671Z,6.73
2023-05-08T20:24:41.208Z,5.73
2023-05-08T20:27:07.756Z,6.43
2023-05-08T20:29:34.324Z,6.33
2023-05-08T20:32:00.925Z,8.07
2023-05-08T20:34:27.703Z,6.97
2023-05-08T20:36:54.256Z,6.97
2023-05-08T20:39:20.942Z,6.43
2023-05-08T20:41:47.491Z,7.93
2023-05-08T20:44:17.173Z,7.67
2023-05-08T20:46:43.724Z,7.03
2023-05-08T20:49:10.299Z,7.27
2023-05-08T20:51:36.900Z,6.60
2023-05-08T20:54:03.676Z,6.67
2023-05-08T20:56:30.463Z,6.63
2023-05-08T20:58:57.005Z,6.83
2023-05-08T21:01:23.524Z,6.87
2023-05-08T21:03:50.113Z,11.27
2023-05-08T21:06:16.723Z,7.93
2023-05-08T21:08:43.226Z,7.10
2023-05-08T21:11:09.865Z,7.47
2023-05-08T21:13:36.510Z,9.53
2023-05-08T21:16:03.158Z,10.63
2023-05-08T21:18:29.709Z,8.77
2023-05-08T21:20:56.267Z,7.27
2023-05-08T21:23:22.990Z,8.93
2023-05-08T21:25:51.567Z,7.80
2023-05-08T21:28:18.253Z,7.23
2023-05-08T21:30:45.337Z,9.00
2023-05-08T21:33:13.893Z,7.50
2023-05-08T21:35:42.342Z,7.87
2023-05-08T21:38:11.856Z,12.67
2023-05-08T21:40:38.607Z,7.27
2023-05-08T21:43:05.782Z,10.17
2023-05-08T21:45:33.204Z,8.67
2023-05-08T21:48:00.312Z,8.63
2023-05-08T21:50:28.523Z,8.30
2023-05-08T21:52:56.571Z,7.93
2023-05-08T21:55:23.560Z,10.10
2023-05-08T21:57:50.229Z,8.67
2023-05-08T22:00:16.946Z,8.37
2023-05-08T22:02:43.550Z,9.03
2023-05-08T22:05:10.635Z,8.33
2023-05-08T22:07:37.375Z,8.10
2023-05-08T22:10:04.288Z,7.70
2023-05-08T22:12:30.870Z,8.40
2023-05-08T22:14:57.497Z,8.90
2023-05-08T22:17:23.968Z,9.20
2023-05-08T22:19:50.489Z,7.60
2023-05-08T22:22:17.278Z,8.87
2023-05-08T22:24:43.768Z,8.40
2023-05-08T22:27:10.515Z,9.43
2023-05-08T22:29:37.255Z,7.17
2023-05-08T22:32:03.818Z,9.37
2023-05-08T22:34:30.442Z,8.23
2023-05-08T22:36:57.071Z,9.10
2023-05-08T22:39:23.590Z,8.30
2023-05-08T22:41:50.219Z,8.43
2023-05-08T22:44:17.064Z,9.77
2023-05-08T22:46:43.724Z,8.97
2023-05-08T22:49:10.439Z,7.57
2023-05-08T22:51:37.105Z,7.87
2023-05-08T22:54:03.697Z,8.43
2023-05-08T22:56:30.357Z,9.40
2023-05-08T22:58:56.949Z,8.27
2023-05-08T23:01:23.476Z,7.80
2023-05-08T23:03:56.691Z,10.77
2023-05-08T23:06:23.467Z,9.33
2023-05-08T23:08:49.966Z,8.63
2023-05-08T23:11:16.684Z,7.63
2023-05-08T23:13:43.163Z,7.90
2023-05-08T23:16:09.690Z,9.07
2023-05-08T23:18:36.311Z,8.70
2023-05-08T23:21:06.771Z,8.83
2023-05-08T23:23:33.507Z,11.67
2023-05-08T23:26:01.185Z,7.67
2023-05-08T23:28:27.859Z,8.27
2023-05-08T23:30:54.394Z,7.53
2023-05-08T23:33:21.033Z,8.10
2023-05-08T23:35:47.613Z,7.47
2023-05-08T23:38:14.185Z,7.73
2023-05-08T23:40:40.785Z,7.87
2023-05-08T23:43:07.326Z,9.23
2023-05-08T23:45:33.933Z,7.43
2023-05-08T23:48:00.538Z,8.17
2023-05-08T23:50:27.272Z,11.77
2023-05-08T23:52:53.838Z,9.73
2023-05-08T23:55:20.459Z,9.03
2023-05-08T23:57:47.258Z,7.50
